Askam-in-Furness, United Kingdom
Current Conditions -  °F | °C
As of 8:50 PM on Monday 22 Dec 2014 (Local Time) from EGNH Reporting Station
Few Clouds Few Clouds  
Wind Chill: 11°   Ceiling: Unl
Heat Index: 11°   Visibility: 5mi
Dew Point:   Wind: 31mph
Humidity: 88%   Direction: 240°WSW
Pressure: 29.8"   Gusts: NA
Location:  54.18°N, 3.22°W
Report Text: EGNH 222050Z 24027KT 8000 FEW014 11/09 Q1009
Loading
Personal Weather Stations






























Interactive Weather Map New forecast layout! Learn more

10-Day Weather Forecast

Advertisements
Track Severe Weather on mobile